Aviation Digital Data Service (ADDS)

Output produced by METARs form (1139 UTC 19 February 2019)
found at http://www.aviationweather.gov/metar/data/
 
METAR text: ZUGY 191100Z 36005MPS 9999 FEW011 SCT013 OVC033 06/04 Q1013 NOSIG
Conditions at: ZUGY (GUIYANG , CN) observed 1100 UTC 19 February 2019
Temperature: 6.0°C (43°F)
Dewpoint: 4.0°C (39°F) [RH = 87%]
Pressure (altimeter): 29.91 inches Hg (1013.0 mb)
Winds: from the N (360 degrees) at 12 MPH (10 knots; 5.1 m/s)
Visibility: 6 or more miles (10+ km)
Ceiling: 3300 feet AGL
Clouds: few clouds at 1100 feet AGL
scattered clouds at 1300 feet AGL
overcast cloud deck at 3300 feet AGL
Weather: no significant weather observed at this time

METAR text: ZUGY 191000Z 02004MPS 9999 BKN015 OVC033 09/06 Q1012 NOSIG
Conditions at: ZUGY (GUIYANG , CN) observed 1000 UTC 19 February 2019
Temperature: 9.0°C (48°F)
Dewpoint: 6.0°C (43°F) [RH = 81%]
Pressure (altimeter): 29.88 inches Hg (1012.0 mb)
Winds: from the NNE (20 degrees) at 9 MPH (8 knots; 4.1 m/s)
Visibility: 6 or more miles (10+ km)
Ceiling: 1500 feet AGL
Clouds: broken clouds at 1500 feet AGL
overcast cloud deck at 3300 feet AGL
Weather: no significant weather observed at this time

METAR text: ZUGY 190900Z 36003MPS 9999 BKN016 OVC033 10/06 Q1012 NOSIG
Conditions at: ZUGY (GUIYANG , CN) observed 0900 UTC 19 February 2019
Temperature: 10.0°C (50°F)
Dewpoint: 6.0°C (43°F) [RH = 76%]
Pressure (altimeter): 29.88 inches Hg (1012.0 mb)
Winds: from the N (360 degrees) at 7 MPH (6 knots; 3.1 m/s)
Visibility: 6 or more miles (10+ km)
Ceiling: 1600 feet AGL
Clouds: broken clouds at 1600 feet AGL
overcast cloud deck at 3300 feet AGL
Weather: no significant weather observed at this time

METAR text: ZUGY 190800Z 03002MPS 350V090 9999 BKN016 OVC033 10/07 Q1012 NOSIG
Conditions at: ZUGY (GUIYANG , CN) observed 0800 UTC 19 February 2019
Temperature: 10.0°C (50°F)
Dewpoint: 7.0°C (45°F) [RH = 82%]
Pressure (altimeter): 29.88 inches Hg (1012.0 mb)
Winds: from the NNE (30 degrees) at 5 MPH (4 knots; 2.1 m/s)
Visibility: 6 or more miles (10+ km)
Ceiling: 1600 feet AGL
Clouds: broken clouds at 1600 feet AGL
overcast cloud deck at 3300 feet AGL
Weather: no significant weather observed at this time

METAR text: ZUGY 190700Z VRB01MPS 9999 FEW009 BKN016 OVC026 09/06 Q1013 NOSIG
Conditions at: ZUGY (GUIYANG , CN) observed 0700 UTC 19 February 2019
Temperature: 9.0°C (48°F)
Dewpoint: 6.0°C (43°F) [RH = 81%]
Pressure (altimeter): 29.91 inches Hg (1013.0 mb)
Winds: variable direction winds at 2 MPH (2 knots; 1.0 m/s)
Visibility: 6 or more miles (10+ km)
Ceiling: 1600 feet AGL
Clouds: few clouds at 900 feet AGL
broken clouds at 1600 feet AGL
overcast cloud deck at 2600 feet AGL
Weather: no significant weather observed at this time

METAR text: ZUGY 190600Z 04002MPS 360V070 9999 SCT008 BKN016 OVC026 08/06 Q1014 NOSIG
Conditions at: ZUGY (GUIYANG , CN) observed 0600 UTC 19 February 2019
Temperature: 8.0°C (46°F)
Dewpoint: 6.0°C (43°F) [RH = 87%]
Pressure (altimeter): 29.94 inches Hg (1014.0 mb)
Winds: from the NE (40 degrees) at 5 MPH (4 knots; 2.1 m/s)
Visibility: 6 or more miles (10+ km)
Ceiling: 1600 feet AGL
Clouds: scattered clouds at 800 feet AGL
broken clouds at 1600 feet AGL
overcast cloud deck at 2600 feet AGL
Weather: no significant weather observed at this time

METAR text: ZUGY 190500Z VRB01MPS 9999 SCT007 BKN015 OVC026 07/05 Q1015 NOSIG
Conditions at: ZUGY (GUIYANG , CN) observed 0500 UTC 19 February 2019
Temperature: 7.0°C (45°F)
Dewpoint: 5.0°C (41°F) [RH = 87%]
Pressure (altimeter): 29.97 inches Hg (1015.0 mb)
Winds: variable direction winds at 2 MPH (2 knots; 1.0 m/s)
Visibility: 6 or more miles (10+ km)
Ceiling: 1500 feet AGL
Clouds: scattered clouds at 700 feet AGL
broken clouds at 1500 feet AGL
overcast cloud deck at 2600 feet AGL
Weather: no significant weather observed at this time

METAR text: ZUGY 190400Z VRB01MPS 7000 FEW003 SCT004 BKN010 05/04 Q1016 BECMG TL0430 FEW004 BKN015 OVC030
Conditions at: ZUGY (GUIYANG , CN) observed 0400 UTC 19 February 2019
Temperature: 5.0°C (41°F)
Dewpoint: 4.0°C (39°F) [RH = 93%]
Pressure (altimeter): 30.00 inches Hg (1016.0 mb)
Winds: variable direction winds at 2 MPH (2 knots; 1.0 m/s)
Visibility: 4 miles ( 7 km)
Ceiling: 1000 feet AGL
Clouds: few clouds at 300 feet AGL
scattered clouds at 400 feet AGL
broken clouds at 1000 feet AGL
Weather: no significant weather observed at this time

METAR text: ZUGY 190300Z 35002MPS 310V030 5000 BR FEW002 BKN010 OVC023 03/03 Q1017 BECMG TL0430 FEW003 BKN015 OVC030
Conditions at: ZUGY (GUIYANG , CN) observed 0300 UTC 19 February 2019
Temperature: 3.0°C (37°F)
Dewpoint: 3.0°C (37°F) [RH = 100%]
Pressure (altimeter): 30.03 inches Hg (1017.0 mb)
Winds: from the N (350 degrees) at 5 MPH (4 knots; 2.1 m/s)
Visibility: 3 miles ( 5 km)
Ceiling: 1000 feet AGL
Clouds: few clouds at 200 feet AGL
broken clouds at 1000 feet AGL
overcast cloud deck at 2300 feet AGL
Weather: BR  (mist)

METAR text: ZUGY 190200Z VRB01MPS 2000 BR FEW001 SCT002 BKN010 02/02 Q1017 NOSIG
Conditions at: ZUGY (GUIYANG , CN) observed 0200 UTC 19 February 2019
Temperature: 2.0°C (36°F)
Dewpoint: 2.0°C (36°F) [RH = 100%]
Pressure (altimeter): 30.03 inches Hg (1017.0 mb)
Winds: variable direction winds at 2 MPH (2 knots; 1.0 m/s)
Visibility: 1.24 miles (2.00 km)
Ceiling: 1000 feet AGL
Clouds: few clouds at 100 feet AGL
scattered clouds at 200 feet AGL
broken clouds at 1000 feet AGL
Weather: BR  (mist)

METAR text: ZUGY 190100Z 35002MPS 310V030 1700 BR FEW001 SCT002 BKN010 02/01 Q1017 NOSIG
Conditions at: ZUGY (GUIYANG , CN) observed 0100 UTC 19 February 2019
Temperature: 2.0°C (36°F)
Dewpoint: 1.0°C (34°F) [RH = 93%]
Pressure (altimeter): 30.03 inches Hg (1017.0 mb)
Winds: from the N (350 degrees) at 5 MPH (4 knots; 2.1 m/s)
Visibility: 1.06 miles (1.71 km)
Ceiling: 1000 feet AGL
Clouds: few clouds at 100 feet AGL
scattered clouds at 200 feet AGL
broken clouds at 1000 feet AGL
Weather: BR  (mist)

METAR text: ZUGY 190000Z 02002MPS 1300 R01/P2000 BR SCT002 BKN010 OVC023 01/01 Q1016 BECMG TL0130 3000
Conditions at: ZUGY (GUIYANG , CN) observed 0000 UTC 19 February 2019
Temperature: 1.0°C (34°F)
Dewpoint: 1.0°C (34°F) [RH = 100%]
Pressure (altimeter): 30.00 inches Hg (1016.0 mb)
Winds: from the NNE (20 degrees) at 5 MPH (4 knots; 2.1 m/s)
Visibility: 0.81 miles (1.30 km)
Ceiling: 1000 feet AGL
Clouds: scattered clouds at 200 feet AGL
broken clouds at 1000 feet AGL
overcast cloud deck at 2300 feet AGL
Weather: BR  (mist)

METAR text: ZUGY 182300Z 01002MPS 3000 -DZ BR SCT002 BKN011 OVC023 01/01 Q1015 NOSIG
Conditions at: ZUGY (GUIYANG , CN) observed 2300 UTC 18 February 2019
Temperature: 1.0°C (34°F)
Dewpoint: 1.0°C (34°F) [RH = 100%]
Pressure (altimeter): 29.97 inches Hg (1015.0 mb)
Winds: from the N (10 degrees) at 5 MPH (4 knots; 2.1 m/s)
Visibility: 1.86 miles (2.99 km)
Ceiling: 1100 feet AGL
Clouds: scattered clouds at 200 feet AGL
broken clouds at 1100 feet AGL
overcast cloud deck at 2300 feet AGL
Weather: -DZ BR  (light drizzle, mist)

METAR text: ZUGY 182200Z 01002MPS 3000 -DZ BR SCT002 BKN011 OVC023 01/01 Q1015 NOSIG
Conditions at: ZUGY (GUIYANG , CN) observed 2200 UTC 18 February 2019
Temperature: 1.0°C (34°F)
Dewpoint: 1.0°C (34°F) [RH = 100%]
Pressure (altimeter): 29.97 inches Hg (1015.0 mb)
Winds: from the N (10 degrees) at 5 MPH (4 knots; 2.1 m/s)
Visibility: 1.86 miles (2.99 km)
Ceiling: 1100 feet AGL
Clouds: scattered clouds at 200 feet AGL
broken clouds at 1100 feet AGL
overcast cloud deck at 2300 feet AGL
Weather: -DZ BR  (light drizzle, mist)

METAR text: ZUGY 182100Z 02002MPS 3500 -DZ BR SCT002 BKN012 OVC023 02/01 Q1014 NOSIG
Conditions at: ZUGY (GUIYANG , CN) observed 2100 UTC 18 February 2019
Temperature: 2.0°C (36°F)
Dewpoint: 1.0°C (34°F) [RH = 93%]
Pressure (altimeter): 29.94 inches Hg (1014.0 mb)
Winds: from the NNE (20 degrees) at 5 MPH (4 knots; 2.1 m/s)
Visibility: 2.17 miles (3.49 km)
Ceiling: 1200 feet AGL
Clouds: scattered clouds at 200 feet AGL
broken clouds at 1200 feet AGL
overcast cloud deck at 2300 feet AGL
Weather: -DZ BR  (light drizzle, mist)

METAR text: ZUGY 182000Z 04002MPS 360V060 3000 -DZ BR SCT002 BKN012 OVC023 02/01 Q1015 NOSIG
Conditions at: ZUGY (GUIYANG , CN) observed 2000 UTC 18 February 2019
Temperature: 2.0°C (36°F)
Dewpoint: 1.0°C (34°F) [RH = 93%]
Pressure (altimeter): 29.97 inches Hg (1015.0 mb)
Winds: from the NE (40 degrees) at 5 MPH (4 knots; 2.1 m/s)
Visibility: 1.86 miles (2.99 km)
Ceiling: 1200 feet AGL
Clouds: scattered clouds at 200 feet AGL
broken clouds at 1200 feet AGL
overcast cloud deck at 2300 feet AGL
Weather: -DZ BR  (light drizzle, mist)

METAR text: ZUGY 181900Z 02002MPS 3000 -DZ BR SCT002 BKN012 OVC023 02/01 Q1015 NOSIG
Conditions at: ZUGY (GUIYANG , CN) observed 1900 UTC 18 February 2019
Temperature: 2.0°C (36°F)
Dewpoint: 1.0°C (34°F) [RH = 93%]
Pressure (altimeter): 29.97 inches Hg (1015.0 mb)
Winds: from the NNE (20 degrees) at 5 MPH (4 knots; 2.1 m/s)
Visibility: 1.86 miles (2.99 km)
Ceiling: 1200 feet AGL
Clouds: scattered clouds at 200 feet AGL
broken clouds at 1200 feet AGL
overcast cloud deck at 2300 feet AGL
Weather: -DZ BR  (light drizzle, mist)

METAR text: ZUGY 181800Z 02002MPS 3000 -RA BR SCT002 BKN012 OVC023 02/01 Q1016 NOSIG
Conditions at: ZUGY (GUIYANG , CN) observed 1800 UTC 18 February 2019
Temperature: 2.0°C (36°F)
Dewpoint: 1.0°C (34°F) [RH = 93%]
Pressure (altimeter): 30.00 inches Hg (1016.0 mb)
Winds: from the NNE (20 degrees) at 5 MPH (4 knots; 2.1 m/s)
Visibility: 1.86 miles (2.99 km)
Ceiling: 1200 feet AGL
Clouds: scattered clouds at 200 feet AGL
broken clouds at 1200 feet AGL
overcast cloud deck at 2300 feet AGL
Weather: -RA BR  (light rain, mist)

METAR text: ZUGY 181700Z 36002MPS 3000 -RA BR SCT002 BKN012 OVC026 02/01 Q1016 NOSIG
Conditions at: ZUGY (GUIYANG , CN) observed 1700 UTC 18 February 2019
Temperature: 2.0°C (36°F)
Dewpoint: 1.0°C (34°F) [RH = 93%]
Pressure (altimeter): 30.00 inches Hg (1016.0 mb)
Winds: from the N (360 degrees) at 5 MPH (4 knots; 2.1 m/s)
Visibility: 1.86 miles (2.99 km)
Ceiling: 1200 feet AGL
Clouds: scattered clouds at 200 feet AGL
broken clouds at 1200 feet AGL
overcast cloud deck at 2600 feet AGL
Weather: -RA BR  (light rain, mist)

METAR text: ZUGY 181600Z 01002MPS 5000 -RA BR SCT005 BKN015 OVC026 02/01 Q1016 BECMG TL1730 FEW004 BKN012 OVC026
Conditions at: ZUGY (GUIYANG , CN) observed 1600 UTC 18 February 2019
Temperature: 2.0°C (36°F)
Dewpoint: 1.0°C (34°F) [RH = 93%]
Pressure (altimeter): 30.00 inches Hg (1016.0 mb)
Winds: from the N (10 degrees) at 5 MPH (4 knots; 2.1 m/s)
Visibility: 3 miles ( 5 km)
Ceiling: 1500 feet AGL
Clouds: scattered clouds at 500 feet AGL
broken clouds at 1500 feet AGL
overcast cloud deck at 2600 feet AGL
Weather: -RA BR  (light rain, mist)

METAR text: ZUGY 181500Z 02003MPS 8000 -RA SCT006 BKN015 OVC026 02/01 Q1016 NOSIG
Conditions at: ZUGY (GUIYANG , CN) observed 1500 UTC 18 February 2019
Temperature: 2.0°C (36°F)
Dewpoint: 1.0°C (34°F) [RH = 93%]
Pressure (altimeter): 30.00 inches Hg (1016.0 mb)
Winds: from the NNE (20 degrees) at 7 MPH (6 knots; 3.1 m/s)
Visibility: 5 miles ( 8 km)
Ceiling: 1500 feet AGL
Clouds: scattered clouds at 600 feet AGL
broken clouds at 1500 feet AGL
overcast cloud deck at 2600 feet AGL
Weather: -RA  (light rain)

METAR text: ZUGY 181400Z 03003MPS 9999 -RA SCT007 BKN015 OVC026 02/01 Q1016 NOSIG
Conditions at: ZUGY (GUIYANG , CN) observed 1400 UTC 18 February 2019
Temperature: 2.0°C (36°F)
Dewpoint: 1.0°C (34°F) [RH = 93%]
Pressure (altimeter): 30.00 inches Hg (1016.0 mb)
Winds: from the NNE (30 degrees) at 7 MPH (6 knots; 3.1 m/s)
Visibility: 6 or more miles (10+ km)
Ceiling: 1500 feet AGL
Clouds: scattered clouds at 700 feet AGL
broken clouds at 1500 feet AGL
overcast cloud deck at 2600 feet AGL
Weather: -RA  (light rain)

METAR text: ZUGY 181300Z 04003MPS 9999 SCT007 BKN015 OVC026 02/01 Q1015 NOSIG
Conditions at: ZUGY (GUIYANG , CN) observed 1300 UTC 18 February 2019
Temperature: 2.0°C (36°F)
Dewpoint: 1.0°C (34°F) [RH = 93%]
Pressure (altimeter): 29.97 inches Hg (1015.0 mb)
Winds: from the NE (40 degrees) at 7 MPH (6 knots; 3.1 m/s)
Visibility: 6 or more miles (10+ km)
Ceiling: 1500 feet AGL
Clouds: scattered clouds at 700 feet AGL
broken clouds at 1500 feet AGL
overcast cloud deck at 2600 feet AGL
Weather: no significant weather observed at this time

METAR text: ZUGY 181200Z 02003MPS 9999 SCT007 BKN015 OVC026 02/01 Q1014 NOSIG
Conditions at: ZUGY (GUIYANG , CN) observed 1200 UTC 18 February 2019
Temperature: 2.0°C (36°F)
Dewpoint: 1.0°C (34°F) [RH = 93%]
Pressure (altimeter): 29.94 inches Hg (1014.0 mb)
Winds: from the NNE (20 degrees) at 7 MPH (6 knots; 3.1 m/s)
Visibility: 6 or more miles (10+ km)
Ceiling: 1500 feet AGL
Clouds: scattered clouds at 700 feet AGL
broken clouds at 1500 feet AGL
overcast cloud deck at 2600 feet AGL
Weather: no significant weather observed at this time

METAR text: ZUGY 181100Z 03004MPS 9999 FEW007 BKN015 OVC026 03/00 Q1013 NOSIG
Conditions at: ZUGY (GUIYANG , CN) observed 1100 UTC 18 February 2019
Temperature: 3.0°C (37°F)
Dewpoint: 0.0°C (32°F) [RH = 81%]
Pressure (altimeter): 29.91 inches Hg (1013.0 mb)
Winds: from the NNE (30 degrees) at 9 MPH (8 knots; 4.1 m/s)
Visibility: 6 or more miles (10+ km)
Ceiling: 1500 feet AGL
Clouds: few clouds at 700 feet AGL
broken clouds at 1500 feet AGL
overcast cloud deck at 2600 feet AGL
Weather: no significant weather observed at this time

METAR text: ZUGY 181000Z 03004MPS 9999 FEW006 BKN015 OVC026 03/00 Q1012 NOSIG
Conditions at: ZUGY (GUIYANG , CN) observed 1000 UTC 18 February 2019
Temperature: 3.0°C (37°F)
Dewpoint: 0.0°C (32°F) [RH = 81%]
Pressure (altimeter): 29.88 inches Hg (1012.0 mb)
Winds: from the NNE (30 degrees) at 9 MPH (8 knots; 4.1 m/s)
Visibility: 6 or more miles (10+ km)
Ceiling: 1500 feet AGL
Clouds: few clouds at 600 feet AGL
broken clouds at 1500 feet AGL
overcast cloud deck at 2600 feet AGL
Weather: no significant weather observed at this time

METAR text: ZUGY 180900Z 03004MPS 350V050 9999 FEW006 BKN015 OVC026 03/00 Q1012 NOSIG
Conditions at: ZUGY (GUIYANG , CN) observed 0900 UTC 18 February 2019
Temperature: 3.0°C (37°F)
Dewpoint: 0.0°C (32°F) [RH = 81%]
Pressure (altimeter): 29.88 inches Hg (1012.0 mb)
Winds: from the NNE (30 degrees) at 9 MPH (8 knots; 4.1 m/s)
Visibility: 6 or more miles (10+ km)
Ceiling: 1500 feet AGL
Clouds: few clouds at 600 feet AGL
broken clouds at 1500 feet AGL
overcast cloud deck at 2600 feet AGL
Weather: no significant weather observed at this time

METAR text: ZUGY 180800Z 04004MPS 8000 FEW006 BKN015 OVC026 03/01 Q1013 NOSIG
Conditions at: ZUGY (GUIYANG , CN) observed 0800 UTC 18 February 2019
Temperature: 3.0°C (37°F)
Dewpoint: 1.0°C (34°F) [RH = 87%]
Pressure (altimeter): 29.91 inches Hg (1013.0 mb)
Winds: from the NE (40 degrees) at 9 MPH (8 knots; 4.1 m/s)
Visibility: 5 miles ( 8 km)
Ceiling: 1500 feet AGL
Clouds: few clouds at 600 feet AGL
broken clouds at 1500 feet AGL
overcast cloud deck at 2600 feet AGL
Weather: no significant weather observed at this time

METAR text: ZUGY 180700Z 03004MPS 8000 -DZ FEW006 BKN015 OVC026 03/01 Q1013 NOSIG
Conditions at: ZUGY (GUIYANG , CN) observed 0700 UTC 18 February 2019
Temperature: 3.0°C (37°F)
Dewpoint: 1.0°C (34°F) [RH = 87%]
Pressure (altimeter): 29.91 inches Hg (1013.0 mb)
Winds: from the NNE (30 degrees) at 9 MPH (8 knots; 4.1 m/s)
Visibility: 5 miles ( 8 km)
Ceiling: 1500 feet AGL
Clouds: few clouds at 600 feet AGL
broken clouds at 1500 feet AGL
overcast cloud deck at 2600 feet AGL
Weather: -DZ  (light drizzle)

METAR text: ZUGY 180600Z 03002MPS 330V090 9999 FEW006 BKN015 OVC026 03/01 Q1013 NOSIG
Conditions at: ZUGY (GUIYANG , CN) observed 0600 UTC 18 February 2019
Temperature: 3.0°C (37°F)
Dewpoint: 1.0°C (34°F) [RH = 87%]
Pressure (altimeter): 29.91 inches Hg (1013.0 mb)
Winds: from the NNE (30 degrees) at 5 MPH (4 knots; 2.1 m/s)
Visibility: 6 or more miles (10+ km)
Ceiling: 1500 feet AGL
Clouds: few clouds at 600 feet AGL
broken clouds at 1500 feet AGL
overcast cloud deck at 2600 feet AGL
Weather: no significant weather observed at this time

METAR text: ZUGY 180500Z 02002MPS 340V050 9999 FEW005 BKN015 OVC026 02/01 Q1014 NOSIG
Conditions at: ZUGY (GUIYANG , CN) observed 0500 UTC 18 February 2019
Temperature: 2.0°C (36°F)
Dewpoint: 1.0°C (34°F) [RH = 93%]
Pressure (altimeter): 29.94 inches Hg (1014.0 mb)
Winds: from the NNE (20 degrees) at 5 MPH (4 knots; 2.1 m/s)
Visibility: 6 or more miles (10+ km)
Ceiling: 1500 feet AGL
Clouds: few clouds at 500 feet AGL
broken clouds at 1500 feet AGL
overcast cloud deck at 2600 feet AGL
Weather: no significant weather observed at this time

METAR text: ZUGY 180400Z 35003MPS 7000 -RA FEW004 BKN015 OVC023 01/01 Q1016 NOSIG
Conditions at: ZUGY (GUIYANG , CN) observed 0400 UTC 18 February 2019
Temperature: 1.0°C (34°F)
Dewpoint: 1.0°C (34°F) [RH = 100%]
Pressure (altimeter): 30.00 inches Hg (1016.0 mb)
Winds: from the N (350 degrees) at 7 MPH (6 knots; 3.1 m/s)
Visibility: 4 miles ( 7 km)
Ceiling: 1500 feet AGL
Clouds: few clouds at 400 feet AGL
broken clouds at 1500 feet AGL
overcast cloud deck at 2300 feet AGL
Weather: -RA  (light rain)

METAR text: ZUGY 180300Z 36003MPS 5000 -RA BR SCT003 BKN015 OVC023 01/00 Q1016 NOSIG
Conditions at: ZUGY (GUIYANG , CN) observed 0300 UTC 18 February 2019
Temperature: 1.0°C (34°F)
Dewpoint: 0.0°C (32°F) [RH = 93%]
Pressure (altimeter): 30.00 inches Hg (1016.0 mb)
Winds: from the N (360 degrees) at 7 MPH (6 knots; 3.1 m/s)
Visibility: 3 miles ( 5 km)
Ceiling: 1500 feet AGL
Clouds: scattered clouds at 300 feet AGL
broken clouds at 1500 feet AGL
overcast cloud deck at 2300 feet AGL
Weather: -RA BR  (light rain, mist)

METAR text: ZUGY 180200Z 01004MPS 5000 -RA BR SCT003 BKN015 OVC023 01/00 Q1016 NOSIG
Conditions at: ZUGY (GUIYANG , CN) observed 0200 UTC 18 February 2019
Temperature: 1.0°C (34°F)
Dewpoint: 0.0°C (32°F) [RH = 93%]
Pressure (altimeter): 30.00 inches Hg (1016.0 mb)
Winds: from the N (10 degrees) at 9 MPH (8 knots; 4.1 m/s)
Visibility: 3 miles ( 5 km)
Ceiling: 1500 feet AGL
Clouds: scattered clouds at 300 feet AGL
broken clouds at 1500 feet AGL
overcast cloud deck at 2300 feet AGL
Weather: -RA BR  (light rain, mist)

METAR text: ZUGY 180100Z 36004MPS 5000 -RA BR SCT003 BKN015 OVC023 00/M01 Q1015 NOSIG
Conditions at: ZUGY (GUIYANG , CN) observed 0100 UTC 18 February 2019
Temperature: 0.0°C (32°F)
Dewpoint: -1.0°C (30°F) [RH = 93%]
Pressure (altimeter): 29.97 inches Hg (1015.0 mb)
Winds: from the N (360 degrees) at 9 MPH (8 knots; 4.1 m/s)
Visibility: 3 miles ( 5 km)
Ceiling: 1500 feet AGL
Clouds: scattered clouds at 300 feet AGL
broken clouds at 1500 feet AGL
overcast cloud deck at 2300 feet AGL
Weather: -RA BR  (light rain, mist)

METAR text: ZUGY 180000Z 01003MPS 9999 SCT004 BKN015 OVC026 00/M01 Q1014 NOSIG
Conditions at: ZUGY (GUIYANG , CN) observed 0000 UTC 18 February 2019
Temperature: 0.0°C (32°F)
Dewpoint: -1.0°C (30°F) [RH = 93%]
Pressure (altimeter): 29.94 inches Hg (1014.0 mb)
Winds: from the N (10 degrees) at 7 MPH (6 knots; 3.1 m/s)
Visibility: 6 or more miles (10+ km)
Ceiling: 1500 feet AGL
Clouds: scattered clouds at 400 feet AGL
broken clouds at 1500 feet AGL
overcast cloud deck at 2600 feet AGL
Weather: no significant weather observed at this time

Forecast for: ZUGY (GUIYANG , CN)
Text: TAF ZUGY 190856Z 1912/2012 03004MPS 3000 -RA BR FEW002 BKN010 OVC026 TX07/2007Z TN02/1923Z
Forecast period: 1200 UTC 19 February 2019 to 0100 UTC 20 February 2019
Forecast type: FROM: standard forecast or significant change
Winds: from the NNE (30 degrees) at 9 MPH (8 knots; 4.1 m/s)
Visibility: 1.86 miles (2.99 km)
Ceiling: 1000 feet AGL
Clouds: few clouds at 200 feet AGL
broken clouds at 1000 feet AGL
overcast cloud deck at 2600 feet AGL
Weather: -RA BR  (light rain, mist)
Text: BECMG 2001/2002 5000 BR FEW004 BKN015 OVC030
Forecast period: 0100 to 1200 UTC 20 February 2019
Forecast type: BECOMING: Conditions expected to become as follows by 0200 UTC 20 February 2019
Winds: from the NNE (30 degrees) at 9 MPH (8 knots; 4.1 m/s)
Visibility: 3 miles (5 km)
Ceiling: 1500 feet AGL
Clouds: few clouds at 400 feet AGL
broken clouds at 1500 feet AGL
overcast cloud deck at 3000 feet AGL
Weather: BR  (mist)
Text: TEMPO 2008/2012 3000 -TSRA BR FEW004 BKN012 FEW026CB OVC030
Forecast period: 0800 to 1200 UTC 20 February 2019
Forecast type: TEMPORARY: The following changes expected for less than half the time period
Visibility: 1.86 miles (2.99 km)
Ceiling: 1200 feet AGL
Clouds: few clouds at 400 feet AGL
broken clouds at 1200 feet AGL
few clouds at 2600 feet AGL
Weather: -TSRA BR  (light rain associated with thunderstorm(s), mist)